Terminal Aerodrome Forecast
Issued by NWS Jackson, KY

Home | Current Version | Previous Version | Text Only | Print | Product List | Glossary On
Versions: 1 2 3 4 5 6 7 8 9 10 11 12 13 14 15 16 17 18 19 20 21
000
FTUS43 KJKL 291315 AAB
TAFJKL
TAF AMD
KJKL 291315Z 2913/3012 VRB03KT 6SM BR OVC003
     FM291400 00000KT P6SM BKN008
     FM291430 VRB03KT P6SM BKN015
     FM291600 VRB03KT P6SM VCTS BKN025CB
     FM291800 VRB03KT P6SM VCTS SCT035CB
     FM300300 34003KT P6SM SCT250=

USA.gov is the U.S. government's official web portal to all federal, state and local government web resources and services.